createdAt,value
2023-01-10T00:00:48.228Z,1000.39
2023-01-10T00:01:48.208Z,1000.40
2023-01-10T00:02:48.243Z,1000.42
2023-01-10T00:03:48.170Z,1000.44
2023-01-10T00:04:48.274Z,1000.43
2023-01-10T00:05:48.143Z,1000.46
2023-01-10T00:06:48.153Z,1000.48
2023-01-10T00:07:48.130Z,1000.47
2023-01-10T00:08:48.138Z,1000.48
2023-01-10T00:09:48.106Z,1000.52
2023-01-10T00:10:48.148Z,1000.55
2023-01-10T00:11:48.089Z,1000.60
2023-01-10T00:12:48.097Z,1000.66
2023-01-10T00:13:48.084Z,1000.73
2023-01-10T00:14:48.063Z,1000.74
2023-01-10T00:15:48.252Z,1000.77
2023-01-10T00:16:48.065Z,1000.78
2023-01-10T00:17:48.022Z,1000.87
2023-01-10T00:18:48.039Z,1000.87
2023-01-10T00:19:48.009Z,1000.87
2023-01-10T00:20:48.005Z,1000.85
2023-01-10T00:21:47.993Z,1000.85
2023-01-10T00:22:47.972Z,1000.84
2023-01-10T00:23:47.955Z,1000.90
2023-01-10T00:24:47.996Z,1000.90
2023-01-10T00:25:47.952Z,1000.93
2023-01-10T00:26:47.959Z,1001.00
2023-01-10T00:27:47.916Z,1000.97
2023-01-10T00:28:47.910Z,1001.01
2023-01-10T00:29:47.886Z,1000.95
2023-01-10T00:30:47.994Z,1000.93
2023-01-10T00:31:47.888Z,1000.97
2023-01-10T00:32:47.886Z,1000.99
2023-01-10T00:33:47.841Z,1000.98
2023-01-10T00:34:47.865Z,1000.98
2023-01-10T00:35:47.862Z,1000.96
2023-01-10T00:36:47.895Z,1000.97
2023-01-10T00:37:47.808Z,1000.99
2023-01-10T00:38:47.827Z,1001.01
2023-01-10T00:39:47.790Z,1001.04
2023-01-10T00:40:47.788Z,1001.03
2023-01-10T00:41:47.785Z,1001.06
2023-01-10T00:42:47.763Z,1001.10
2023-01-10T00:43:47.781Z,1001.14
2023-01-10T00:44:47.769Z,1001.18
2023-01-10T00:45:47.731Z,1001.21
2023-01-10T00:46:47.728Z,1001.24
2023-01-10T00:47:47.726Z,1001.24
2023-01-10T00:48:47.705Z,1001.24
2023-01-10T00:49:47.703Z,1001.31
2023-01-10T00:50:47.676Z,1001.36
2023-01-10T00:51:47.678Z,1001.39
2023-01-10T00:52:47.650Z,1001.36
2023-01-10T00:53:47.664Z,1001.41
2023-01-10T00:54:47.639Z,1001.46
2023-01-10T00:55:47.628Z,1001.52
2023-01-10T00:56:47.620Z,1001.56
2023-01-10T00:57:47.619Z,1001.57
2023-01-10T00:58:47.585Z,1001.60
2023-01-10T00:59:47.605Z,1001.62
2023-01-10T01:00:47.556Z,1001.65
2023-01-10T01:01:47.729Z,1001.68
2023-01-10T01:02:47.560Z,1001.72
2023-01-10T01:03:47.557Z,1001.74
2023-01-10T01:04:47.507Z,1001.79
2023-01-10T01:05:47.529Z,1001.80
2023-01-10T01:06:47.512Z,1001.82
2023-01-10T01:07:47.500Z,1001.88
2023-01-10T01:08:47.493Z,1001.91
2023-01-10T01:09:47.490Z,1001.98
2023-01-10T01:10:47.459Z,1002.02
2023-01-10T01:11:47.457Z,1002.08
2023-01-10T01:12:47.439Z,1002.11
2023-01-10T01:13:47.443Z,1002.15
2023-01-10T01:14:47.416Z,1002.14
2023-01-10T01:15:47.456Z,1002.12
2023-01-10T01:16:47.389Z,1002.16
2023-01-10T01:17:47.395Z,1002.20
2023-01-10T01:18:47.355Z,1002.20
2023-01-10T01:19:47.383Z,1002.24
2023-01-10T01:20:47.380Z,1002.27
2023-01-10T01:21:47.340Z,1002.28
2023-01-10T01:22:47.329Z,1002.30
2023-01-10T01:23:47.331Z,1002.35
2023-01-10T01:24:47.303Z,1002.38
2023-01-10T01:25:47.300Z,1002.38
2023-01-10T01:26:47.307Z,1002.41
2023-01-10T01:27:47.285Z,1002.45
2023-01-10T01:28:47.265Z,1002.47
2023-01-10T01:29:47.298Z,1002.52
2023-01-10T01:30:47.255Z,1002.53
2023-01-10T01:31:47.236Z,1002.54
2023-01-10T01:32:47.207Z,1002.53
2023-01-10T01:33:47.215Z,1002.50
2023-01-10T01:34:47.206Z,1002.56
2023-01-10T01:35:47.201Z,1002.67
2023-01-10T01:36:47.174Z,1002.74
2023-01-10T01:37:47.179Z,1002.69
2023-01-10T01:38:47.135Z,1002.71
2023-01-10T01:39:47.153Z,1002.73
2023-01-10T01:40:47.234Z,1002.76
2023-01-10T01:41:47.178Z,1002.80
2023-01-10T01:42:47.095Z,1002.84
2023-01-10T01:43:47.109Z,1002.86
2023-01-10T01:44:47.074Z,1002.90
2023-01-10T01:45:47.085Z,1002.94
2023-01-10T01:46:47.067Z,1003.01
2023-01-10T01:47:47.068Z,1002.99
2023-01-10T01:48:47.036Z,1003.02
2023-01-10T01:49:47.052Z,1003.04
2023-01-10T01:50:47.030Z,1003.00
2023-01-10T01:51:47.043Z,1003.00
2023-01-10T01:52:47.005Z,1003.03
2023-01-10T01:53:47.023Z,1003.03
2023-01-10T01:54:47.003Z,1003.04
2023-01-10T01:55:46.968Z,1003.10
2023-01-10T01:56:46.967Z,1003.12
2023-01-10T01:57:46.955Z,1003.14
2023-01-10T01:58:46.932Z,1003.14
2023-01-10T01:59:46.929Z,1003.17
2023-01-10T02:00:46.904Z,1003.20
2023-01-10T02:01:46.971Z,1003.24
2023-01-10T02:02:57.710Z,1003.28
2023-01-10T02:03:46.931Z,1003.29
2023-01-10T02:04:46.882Z,1003.33
2023-01-10T02:05:46.871Z,1003.31
2023-01-10T02:06:46.836Z,1003.33
2023-01-10T02:07:46.860Z,1003.38
2023-01-10T02:08:46.816Z,1003.40
2023-01-10T02:09:46.815Z,1003.42
2023-01-10T02:10:46.808Z,1003.45
2023-01-10T02:11:46.807Z,1003.44
2023-01-10T02:12:46.769Z,1003.44
2023-01-10T02:13:46.773Z,1003.42
2023-01-10T02:14:46.746Z,1003.42
2023-01-10T02:15:46.772Z,1003.43
2023-01-10T02:16:46.726Z,1003.45
2023-01-10T02:17:46.742Z,1003.45
2023-01-10T02:18:46.723Z,1003.45
2023-01-10T02:19:46.708Z,1003.47
2023-01-10T02:20:46.687Z,1003.47
2023-01-10T02:21:46.701Z,1003.50
2023-01-10T02:22:46.670Z,1003.53
2023-01-10T02:23:46.697Z,1003.54
2023-01-10T02:24:46.643Z,1003.56
2023-01-10T02:25:46.650Z,1003.58
2023-01-10T02:26:46.619Z,1003.60
2023-01-10T02:27:46.638Z,1003.63
2023-01-10T02:28:46.627Z,1003.64
2023-01-10T02:29:46.634Z,1003.69
2023-01-10T07:00:45.079Z,1008.10
2023-01-10T07:01:46.164Z,1008.10
2023-01-10T07:02:46.350Z,1008.11
2023-01-10T07:03:46.048Z,1008.05
2023-01-10T07:04:46.013Z,1008.05
2023-01-10T07:05:46.006Z,1008.02
2023-01-10T07:06:46.013Z,1008.01
2023-01-10T07:07:45.975Z,1007.97
2023-01-10T07:08:45.996Z,1007.96
2023-01-10T07:09:45.948Z,1007.94
2023-01-10T07:10:45.981Z,1007.95
2023-01-10T07:11:45.929Z,1007.96
2023-01-10T07:12:45.953Z,1007.93
2023-01-10T07:13:45.906Z,1007.97
2023-01-10T07:14:45.912Z,1007.99
2023-01-10T07:15:45.963Z,1008.04
2023-01-10T07:16:45.917Z,1008.08
2023-01-10T07:17:45.879Z,1008.11
2023-01-10T07:18:45.878Z,1008.15
2023-01-10T07:19:45.851Z,1008.15
2023-01-10T07:20:45.858Z,1008.17
2023-01-10T07:21:45.843Z,1008.20
2023-01-10T07:22:45.823Z,1008.23
2023-01-10T07:23:45.797Z,1008.27
2023-01-10T07:24:45.829Z,1008.32
2023-01-10T07:25:45.785Z,1008.35
2023-01-10T07:26:45.798Z,1008.37
2023-01-10T07:27:45.769Z,1008.38
2023-01-10T07:28:45.758Z,1008.39
2023-01-10T07:29:45.755Z,1008.42
2023-01-10T07:30:45.754Z,1008.45
2023-01-10T07:31:45.726Z,1008.48
2023-01-10T07:32:45.740Z,1008.48
2023-01-10T07:33:45.693Z,1008.50
2023-01-10T07:34:45.705Z,1008.50
2023-01-10T07:35:45.696Z,1008.53
2023-01-10T07:36:45.692Z,1008.53
2023-01-10T07:37:45.679Z,1008.54
2023-01-10T07:38:45.696Z,1008.55
2023-01-10T07:39:45.636Z,1008.55
2023-01-10T07:40:45.635Z,1008.54
2023-01-10T07:41:45.627Z,1008.52
2023-01-10T07:42:45.629Z,1008.51
2023-01-10T07:43:45.620Z,1008.51
2023-01-10T07:44:45.611Z,1008.53
2023-01-10T07:45:45.575Z,1008.58
2023-01-10T07:46:45.584Z,1008.66
2023-01-10T07:47:45.578Z,1008.71
2023-01-10T07:48:45.576Z,1008.75
2023-01-10T07:49:45.533Z,1008.76
2023-01-10T07:50:45.551Z,1008.80
2023-01-10T07:51:45.498Z,1008.84
2023-01-10T07:52:45.512Z,1008.85
2023-01-10T07:53:45.502Z,1008.87
2023-01-10T07:54:45.516Z,1008.89
2023-01-10T07:55:45.473Z,1008.89
2023-01-10T07:56:45.474Z,1008.93
2023-01-10T07:57:45.456Z,1008.98
2023-01-10T07:58:45.447Z,1009.01
2023-01-10T07:59:45.445Z,1009.01
2023-01-10T08:00:45.416Z,1008.97
2023-01-10T08:01:45.427Z,1008.91
2023-01-10T08:02:45.584Z,1008.86
2023-01-10T08:03:45.452Z,1008.84
2023-01-10T08:04:45.383Z,1008.86
2023-01-10T08:05:45.384Z,1008.90
2023-01-10T08:06:45.355Z,1008.93
2023-01-10T08:07:45.371Z,1008.94
2023-01-10T08:08:45.331Z,1008.94
2023-01-10T08:11:12.520Z,1008.85
2023-01-10T08:12:13.493Z,1008.81
2023-01-10T08:13:18.711Z,1008.80
2023-01-10T08:14:13.526Z,1008.80
2023-01-10T08:15:13.450Z,1008.82
2023-01-10T08:16:13.519Z,1008.87
2023-01-10T08:17:13.444Z,1008.86
2023-01-10T08:18:13.447Z,1008.91
2023-01-10T08:19:13.447Z,1008.91
2023-01-10T08:20:13.419Z,1008.94
2023-01-10T08:21:13.390Z,1008.90
2023-01-10T08:22:13.395Z,1008.92
2023-01-10T08:23:13.368Z,1008.92
2023-01-10T08:24:13.395Z,1008.97
2023-01-10T08:25:13.361Z,1009.02
2023-01-10T08:26:13.354Z,1009.05
2023-01-10T08:27:13.321Z,1009.08
2023-01-10T08:28:13.346Z,1009.09
2023-01-10T08:29:13.313Z,1009.10
2023-01-10T08:30:13.347Z,1009.06
2023-01-10T08:31:13.358Z,1009.08
2023-01-10T08:32:13.299Z,1009.09
2023-01-10T08:33:13.271Z,1009.13
2023-01-10T08:34:13.267Z,1009.16
2023-01-10T08:35:13.272Z,1009.15
2023-01-10T08:36:13.247Z,1009.16
2023-01-10T08:37:13.244Z,1009.13
2023-01-10T08:38:13.260Z,1009.11
2023-01-10T08:39:13.234Z,1009.23
2023-01-10T08:40:13.216Z,1009.15
2023-01-10T08:41:13.199Z,1009.20
2023-01-10T08:42:13.185Z,1009.22
2023-01-10T08:43:13.165Z,1009.29
2023-01-10T08:44:13.165Z,1009.27
2023-01-10T08:45:13.151Z,1009.27
2023-01-10T08:46:13.203Z,1009.26
2023-01-10T08:47:13.148Z,1009.23
2023-01-10T08:48:13.149Z,1009.25
2023-01-10T08:49:13.116Z,1009.29
2023-01-10T08:50:13.113Z,1009.27
2023-01-10T08:51:13.079Z,1009.29
2023-01-10T08:52:13.106Z,1009.30
2023-01-10T08:53:13.098Z,1009.30
2023-01-10T08:54:13.083Z,1009.29
2023-01-10T08:55:13.041Z,1009.29
2023-01-10T08:56:13.054Z,1009.30
2023-01-10T08:57:13.013Z,1009.30
2023-01-10T08:58:13.077Z,1009.32
2023-01-10T08:59:13.009Z,1009.36
2023-01-10T09:00:13.054Z,1009.37
2023-01-10T09:01:13.053Z,1009.36
2023-01-10T09:02:13.038Z,1009.37
2023-01-10T09:03:13.055Z,1009.38
2023-01-10T09:04:12.981Z,1009.38
2023-01-10T09:05:26.460Z,1009.40
2023-01-10T09:06:12.950Z,1009.39
2023-01-10T09:07:12.926Z,1009.41
2023-01-10T09:08:12.928Z,1009.43
2023-01-10T09:09:13.148Z,1009.45
2023-01-10T09:10:12.908Z,1009.46
2023-01-10T09:11:12.930Z,1009.46
2023-01-10T09:12:12.872Z,1009.50
2023-01-10T09:13:12.865Z,1009.49
2023-01-10T09:14:12.850Z,1009.48
2023-01-10T09:15:12.850Z,1009.45
2023-01-10T09:16:12.920Z,1009.49
2023-01-10T09:17:12.823Z,1009.45
2023-01-10T09:18:12.807Z,1009.45
2023-01-10T09:19:12.806Z,1009.49
2023-01-10T09:20:12.815Z,1009.50
2023-01-10T09:21:12.780Z,1009.49
2023-01-10T09:22:12.794Z,1009.55
2023-01-10T09:23:12.766Z,1009.55
2023-01-10T09:24:12.765Z,1009.54
2023-01-10T09:25:12.729Z,1009.60
2023-01-10T09:26:12.752Z,1009.63
2023-01-10T09:27:12.720Z,1009.63
2023-01-10T09:28:12.733Z,1009.62
2023-01-10T09:29:12.682Z,1009.62
2023-01-10T09:30:12.702Z,1009.63
2023-01-10T09:31:12.716Z,1009.60
2023-01-10T09:32:12.689Z,1009.60
2023-01-10T09:33:12.656Z,1009.65
2023-01-10T09:34:12.657Z,1009.64
2023-01-10T09:35:12.625Z,1009.63
2023-01-10T09:36:12.627Z,1009.61
2023-01-10T09:37:12.607Z,1009.61
2023-01-10T09:38:12.642Z,1009.64
2023-01-10T09:39:12.585Z,1009.64
2023-01-10T09:40:12.597Z,1009.65
2023-01-10T09:41:12.588Z,1009.67
2023-01-10T09:42:12.580Z,1009.65
2023-01-10T09:43:12.580Z,1009.69
2023-01-10T09:44:12.556Z,1009.68
2023-01-10T09:45:12.527Z,1009.77
2023-01-10T09:46:12.561Z,1009.80
2023-01-10T09:47:21.962Z,1009.69
2023-01-10T09:48:12.517Z,1009.69
2023-01-10T09:49:12.512Z,1009.71
2023-01-10T09:50:12.532Z,1009.74
2023-01-10T09:51:12.469Z,1009.74
2023-01-10T09:52:12.474Z,1009.78
2023-01-10T09:53:12.447Z,1009.78
2023-01-10T09:54:13.065Z,1009.73
2023-01-10T09:55:12.420Z,1009.73
2023-01-10T09:56:12.426Z,1009.74
2023-01-10T09:57:12.400Z,1009.78
2023-01-10T09:58:12.412Z,1009.78
2023-01-10T09:59:12.376Z,1009.78
2023-01-10T10:00:12.423Z,1009.82
2023-01-10T10:01:12.440Z,1009.87
2023-01-10T10:02:12.378Z,1009.93
2023-01-10T10:03:12.428Z,1009.93
2023-01-10T10:04:12.436Z,1009.91
2023-01-10T10:05:12.327Z,1009.94
2023-01-10T10:06:12.770Z,1010.00
2023-01-10T10:07:12.332Z,1009.92
2023-01-10T10:08:12.276Z,1009.86
2023-01-10T10:09:12.277Z,1009.84
2023-01-10T10:10:12.271Z,1009.84
2023-01-10T10:11:12.281Z,1009.83
2023-01-10T10:12:12.253Z,1009.83
2023-01-10T10:13:16.915Z,1009.86
2023-01-10T10:14:12.212Z,1009.84
2023-01-10T10:15:12.211Z,1009.88
2023-01-10T10:16:12.232Z,1009.86
2023-01-10T10:17:12.217Z,1009.91
2023-01-10T10:18:12.162Z,1009.92
2023-01-10T10:19:12.173Z,1009.92
2023-01-10T10:20:12.152Z,1009.94
2023-01-10T10:21:12.150Z,1009.90
2023-01-10T10:22:12.130Z,1009.92
2023-01-10T10:23:12.168Z,1009.85
2023-01-10T10:24:12.177Z,1009.87
2023-01-10T10:25:12.174Z,1009.89
2023-01-10T10:26:12.084Z,1009.84
2023-01-10T10:27:12.085Z,1009.86
2023-01-10T10:28:12.066Z,1009.87
2023-01-10T10:29:12.075Z,1009.87
2023-01-10T10:30:12.059Z,1009.87
2023-01-10T10:31:12.108Z,1009.84
2023-01-10T10:32:12.021Z,1009.88
2023-01-10T10:33:12.023Z,1009.88
2023-01-10T10:34:12.000Z,1009.87
2023-01-10T10:35:12.006Z,1009.90
2023-01-10T10:36:11.985Z,1009.90
2023-01-10T10:37:12.006Z,1009.90
2023-01-10T10:38:11.956Z,1009.84
2023-01-10T10:39:13.448Z,1009.92
2023-01-10T10:40:11.964Z,1009.98
2023-01-10T10:41:11.950Z,1009.92
2023-01-10T10:42:11.917Z,1009.97
2023-01-10T10:43:11.922Z,1009.99
2023-01-10T10:44:12.885Z,1009.99
2023-01-10T10:45:11.970Z,1009.96
2023-01-10T10:46:11.932Z,1009.91
2023-01-10T10:47:11.887Z,1009.91
2023-01-10T10:48:11.847Z,1009.96
2023-01-10T10:49:11.855Z,1009.93
2023-01-10T10:50:11.861Z,1009.92
2023-01-10T10:51:11.828Z,1009.95
2023-01-10T10:52:11.806Z,1009.94
2023-01-10T10:53:11.805Z,1009.91
2023-01-10T10:54:11.800Z,1009.88
2023-01-10T10:55:11.801Z,1009.89
2023-01-10T10:56:11.791Z,1009.90
2023-01-10T10:57:11.802Z,1009.90
2023-01-10T10:58:11.768Z,1009.93
2023-01-10T10:59:11.799Z,1009.86
2023-01-10T11:00:11.808Z,1009.91
2023-01-10T11:01:11.956Z,1009.88
2023-01-10T11:02:11.836Z,1009.93
2023-01-10T11:03:11.732Z,1009.91
2023-01-10T11:04:11.681Z,1009.91
2023-01-10T11:05:11.759Z,1009.89
2023-01-10T11:06:11.661Z,1009.91
2023-01-10T11:07:11.676Z,1009.90
2023-01-10T11:08:11.646Z,1009.89
2023-01-10T11:09:11.659Z,1009.89
2023-01-10T11:10:11.611Z,1009.89
2023-01-10T11:11:11.632Z,1009.88
2023-01-10T11:12:11.593Z,1009.92
2023-01-10T11:13:11.627Z,1009.91
2023-01-10T11:14:11.595Z,1009.91
2023-01-10T11:15:11.567Z,1009.91
2023-01-10T11:16:11.613Z,1009.89
2023-01-10T11:17:11.658Z,1009.92
2023-01-10T11:18:11.543Z,1009.94
2023-01-10T11:19:11.555Z,1009.92
2023-01-10T11:20:11.559Z,1009.93
2023-01-10T11:21:11.514Z,1009.91
2023-01-10T11:22:11.500Z,1009.92
2023-01-10T11:23:11.502Z,1009.89
2023-01-10T11:24:11.475Z,1009.86
2023-01-10T11:25:11.480Z,1009.89
2023-01-10T11:26:11.451Z,1009.86
2023-01-10T11:27:11.445Z,1009.87
2023-01-10T11:28:11.459Z,1009.86
2023-01-10T11:29:11.426Z,1009.84
2023-01-10T11:30:11.457Z,1009.83
2023-01-10T11:31:11.421Z,1009.82
2023-01-10T11:32:11.369Z,1009.83
2023-01-10T11:33:11.380Z,1009.84
2023-01-10T11:34:11.356Z,1009.86
2023-01-10T11:35:11.352Z,1009.84
2023-01-10T11:36:11.363Z,1009.88
2023-01-10T11:37:11.348Z,1009.87
2023-01-10T11:38:11.307Z,1009.88
2023-01-10T11:39:11.320Z,1009.92
2023-01-10T11:40:11.293Z,1009.91
2023-01-10T11:41:11.296Z,1009.91
2023-01-10T11:42:11.290Z,1009.88
2023-01-10T11:43:11.306Z,1009.88
2023-01-10T11:44:11.246Z,1009.87
2023-01-10T11:45:11.258Z,1009.83
2023-01-10T11:46:11.269Z,1009.87
2023-01-10T11:47:11.232Z,1009.90
2023-01-10T11:48:11.210Z,1009.80
2023-01-10T11:49:11.229Z,1009.79
2023-01-10T11:50:11.202Z,1009.75
2023-01-10T11:51:11.205Z,1009.73
2023-01-10T11:52:11.172Z,1009.74
2023-01-10T11:53:11.172Z,1009.72
2023-01-10T11:54:11.141Z,1009.73
2023-01-10T11:55:11.161Z,1009.73
2023-01-10T11:56:11.121Z,1009.75
2023-01-10T11:57:11.165Z,1009.77
2023-01-10T11:58:11.087Z,1009.76
2023-01-10T11:59:11.098Z,1009.74
2023-01-10T12:00:11.093Z,1009.78
2023-01-10T12:01:11.088Z,1009.71
2023-01-10T12:02:11.137Z,1009.73
2023-01-10T12:03:11.079Z,1009.73
2023-01-10T12:04:11.037Z,1009.69
2023-01-10T12:05:11.057Z,1009.68
2023-01-10T12:06:11.030Z,1009.68
2023-01-10T12:07:11.056Z,1009.65
2023-01-10T12:08:10.989Z,1009.63
2023-01-10T12:09:11.026Z,1009.59
2023-01-10T12:10:10.970Z,1009.55
2023-01-10T12:11:10.974Z,1009.61
2023-01-10T12:12:10.952Z,1009.52
2023-01-10T12:13:10.994Z,1009.59
2023-01-10T12:14:10.939Z,1009.58
2023-01-10T12:15:10.937Z,1009.57
2023-01-10T12:16:10.934Z,1009.53
2023-01-10T12:17:10.928Z,1009.55
2023-01-10T12:18:10.924Z,1009.52
2023-01-10T12:19:10.914Z,1009.54
2023-01-10T12:20:10.871Z,1009.55
2023-01-10T12:21:10.884Z,1009.53
2023-01-10T12:22:10.851Z,1009.49
2023-01-10T12:23:10.921Z,1009.51
2023-01-10T12:24:10.836Z,1009.49
2023-01-10T12:25:10.858Z,1009.48
2023-01-10T12:26:12.167Z,1009.45
2023-01-10T12:27:10.835Z,1009.44
2023-01-10T12:28:10.796Z,1009.45
2023-01-10T12:29:10.796Z,1009.41
2023-01-10T12:30:10.855Z,1009.37
2023-01-10T12:31:10.896Z,1009.38
2023-01-10T12:32:10.735Z,1009.38
2023-01-10T12:33:10.763Z,1009.45
2023-01-10T12:34:10.737Z,1009.45
2023-01-10T12:35:10.768Z,1009.47
2023-01-10T12:36:10.692Z,1009.43
2023-01-10T12:37:10.723Z,1009.43
2023-01-10T12:38:10.683Z,1009.43
2023-01-10T12:39:11.448Z,1009.42
2023-01-10T12:40:10.708Z,1009.41
2023-01-10T12:41:10.733Z,1009.44
2023-01-10T12:42:10.627Z,1009.43
2023-01-10T12:43:10.654Z,1009.46
2023-01-10T12:44:10.625Z,1009.43
2023-01-10T12:45:10.615Z,1009.47
2023-01-10T12:46:25.158Z,1009.48
2023-01-10T12:47:13.171Z,1009.46
2023-01-10T12:48:10.564Z,1009.50
2023-01-10T12:49:10.631Z,1009.50
2023-01-10T12:50:10.562Z,1009.48
2023-01-10T12:51:10.581Z,1009.48
2023-01-10T12:52:10.526Z,1009.51
2023-01-10T12:53:10.560Z,1009.51
2023-01-10T12:54:10.506Z,1009.49
2023-01-10T12:55:10.500Z,1009.48
2023-01-10T12:56:10.480Z,1009.49
2023-01-10T12:57:10.490Z,1009.49
2023-01-10T12:58:10.515Z,1009.54
2023-01-10T12:59:10.586Z,1009.52
2023-01-10T13:00:10.437Z,1009.51
2023-01-10T13:01:10.570Z,1009.49
2023-01-10T13:02:10.576Z,1009.50
2023-01-10T13:03:10.528Z,1009.53
2023-01-10T13:04:10.396Z,1009.51
2023-01-10T13:05:10.399Z,1009.52
2023-01-10T13:06:10.381Z,1009.50
2023-01-10T13:07:10.380Z,1009.50
2023-01-10T13:08:10.350Z,1009.50
2023-01-10T13:09:10.449Z,1009.48
2023-01-10T13:10:10.345Z,1009.50
2023-01-10T13:11:10.376Z,1009.48
2023-01-10T13:12:10.313Z,1009.48
2023-01-10T13:13:10.314Z,1009.48
2023-01-10T13:14:10.309Z,1009.50
2023-01-10T13:15:10.295Z,1009.47
2023-01-10T13:16:10.379Z,1009.48
2023-01-10T13:17:10.299Z,1009.48
2023-01-10T13:18:10.254Z,1009.52
2023-01-10T13:19:10.282Z,1009.49
2023-01-10T13:20:10.223Z,1009.47
2023-01-10T13:21:10.229Z,1009.51
2023-01-10T13:22:10.204Z,1009.51
2023-01-10T13:23:10.248Z,1009.44
2023-01-10T13:24:10.202Z,1009.49
2023-01-10T13:25:10.218Z,1009.49
2023-01-10T13:26:10.163Z,1009.54
2023-01-10T13:27:10.171Z,1009.49
2023-01-10T13:28:10.165Z,1009.53
2023-01-10T13:29:10.170Z,1009.49
2023-01-10T13:30:10.151Z,1009.59
2023-01-10T13:31:10.172Z,1009.57
2023-01-10T13:32:10.119Z,1009.55
2023-01-10T13:33:10.104Z,1009.49
2023-01-10T13:34:10.093Z,1009.55
2023-01-10T13:35:10.110Z,1009.53
2023-01-10T13:36:10.084Z,1009.59
2023-01-10T13:37:10.059Z,1009.57
2023-01-10T13:38:10.035Z,1009.62
2023-01-10T13:39:10.035Z,1009.56
2023-01-10T13:40:10.058Z,1009.55
2023-01-10T13:41:10.018Z,1009.57
2023-01-10T13:42:09.994Z,1009.54
2023-01-10T13:43:10.003Z,1009.54
2023-01-10T13:44:10.008Z,1009.51
2023-01-10T13:45:10.018Z,1009.59
2023-01-10T13:46:09.985Z,1009.51
2023-01-10T13:47:09.957Z,1009.48
2023-01-10T13:48:09.940Z,1009.48
2023-01-10T13:49:09.931Z,1009.48
2023-01-10T13:50:09.952Z,1009.48
2023-01-10T13:51:09.927Z,1009.49
2023-01-10T13:52:09.888Z,1009.53
2023-01-10T13:53:09.934Z,1009.50
2023-01-10T13:54:09.865Z,1009.46
2023-01-10T13:55:09.885Z,1009.45
2023-01-10T13:56:09.862Z,1009.43
2023-01-10T13:57:09.894Z,1009.47
2023-01-10T13:58:09.840Z,1009.43
2023-01-10T13:59:09.828Z,1009.40
2023-01-10T14:00:09.803Z,1009.45
2023-01-10T14:01:10.022Z,1009.38
2023-01-10T14:02:09.831Z,1009.38
2023-01-10T14:03:09.797Z,1009.37
2023-01-10T14:04:09.837Z,1009.37
2023-01-10T14:05:09.803Z,1009.40
2023-01-10T14:06:09.739Z,1009.38
2023-01-10T14:07:09.745Z,1009.40
2023-01-10T14:08:09.715Z,1009.38
2023-01-10T14:09:09.726Z,1009.35
2023-01-10T14:10:09.755Z,1009.34
2023-01-10T14:11:09.710Z,1009.31
2023-01-10T14:12:09.743Z,1009.36
2023-01-10T14:13:09.665Z,1009.31
2023-01-10T14:14:09.674Z,1009.33
2023-01-10T14:15:09.673Z,1009.26
2023-01-10T14:16:09.653Z,1009.26
2023-01-10T14:17:09.655Z,1009.26
2023-01-10T14:18:09.658Z,1009.26
2023-01-10T14:19:09.620Z,1009.26
2023-01-10T14:20:09.625Z,1009.25
2023-01-10T14:21:09.586Z,1009.28
2023-01-10T14:22:09.585Z,1009.22
2023-01-10T14:23:09.570Z,1009.21
2023-01-10T14:24:09.587Z,1009.21
2023-01-10T14:25:09.547Z,1009.21
2023-01-10T14:26:09.574Z,1009.24
2023-01-10T14:27:09.521Z,1009.19
2023-01-10T14:28:09.537Z,1009.19
2023-01-10T14:29:09.487Z,1009.18
2023-01-10T14:30:09.491Z,1009.14
2023-01-10T14:31:09.579Z,1009.15
2023-01-10T14:32:09.477Z,1009.11
2023-01-10T14:33:09.491Z,1009.15
2023-01-10T14:34:09.465Z,1009.10
2023-01-10T14:35:09.512Z,1009.11
2023-01-10T14:36:09.480Z,1009.14
2023-01-10T14:37:09.408Z,1009.10
2023-01-10T14:38:09.426Z,1009.10
2023-01-10T14:39:09.393Z,1009.12
2023-01-10T14:40:09.397Z,1009.11
2023-01-10T14:41:09.397Z,1009.10
2023-01-10T14:42:09.365Z,1009.10
2023-01-10T14:43:09.347Z,1009.09
2023-01-10T14:44:11.769Z,1009.08
2023-01-10T14:45:09.322Z,1009.05
2023-01-10T14:46:09.418Z,1009.05
2023-01-10T14:47:09.318Z,1009.05
2023-01-10T14:48:09.303Z,1009.05
2023-01-10T14:49:09.281Z,1009.07
2023-01-10T14:50:09.308Z,1009.06
2023-01-10T14:51:09.281Z,1008.98
2023-01-10T14:52:09.254Z,1009.00
2023-01-10T14:53:09.238Z,1008.95
2023-01-10T14:54:09.247Z,1008.93
2023-01-10T14:55:09.307Z,1008.90
2023-01-10T14:56:09.218Z,1008.96
2023-01-10T14:57:09.219Z,1008.93
2023-01-10T14:58:09.204Z,1008.95
2023-01-10T14:59:09.175Z,1008.94
2023-01-10T15:00:09.182Z,1008.99
2023-01-10T15:01:09.184Z,1008.93
2023-01-10T15:02:09.214Z,1008.95
2023-01-10T15:03:09.146Z,1008.91
2023-01-10T15:04:09.129Z,1008.91
2023-01-10T15:05:09.251Z,1008.87
2023-01-10T15:06:09.127Z,1008.85
2023-01-10T15:07:09.137Z,1008.88
2023-01-10T15:08:09.139Z,1008.75
2023-01-10T15:09:09.148Z,1008.77
2023-01-10T15:10:09.067Z,1008.77
2023-01-10T15:11:09.114Z,1008.77
2023-01-10T15:12:09.057Z,1008.78
2023-01-10T15:13:09.056Z,1008.81
2023-01-10T15:14:09.071Z,1008.81
2023-01-10T15:15:09.165Z,1008.82
2023-01-10T15:16:09.098Z,1008.82
2023-01-10T15:17:08.984Z,1008.78
2023-01-10T15:18:08.993Z,1008.81
2023-01-10T15:19:09.029Z,1008.82
2023-01-10T15:20:08.985Z,1008.82
2023-01-10T15:21:08.945Z,1008.80
2023-01-10T15:22:08.949Z,1008.77
2023-01-10T15:23:08.935Z,1008.78
2023-01-10T15:24:08.951Z,1008.80
2023-01-10T15:25:09.007Z,1008.81
2023-01-10T15:26:08.933Z,1008.81
2023-01-10T15:27:08.926Z,1008.81
2023-01-10T15:28:08.885Z,1008.81
2023-01-10T15:29:08.892Z,1008.81
2023-01-10T15:30:08.859Z,1008.81
2023-01-10T15:31:08.916Z,1008.80
2023-01-10T15:32:08.879Z,1008.80
2023-01-10T15:33:08.834Z,1008.81
2023-01-10T15:34:08.815Z,1008.81
2023-01-10T15:35:08.846Z,1008.88
2023-01-10T15:36:08.787Z,1008.82
2023-01-10T15:37:08.762Z,1008.81
2023-01-10T15:38:08.773Z,1008.82
2023-01-10T15:39:08.868Z,1008.76
2023-01-10T15:40:08.766Z,1008.77
2023-01-10T15:41:08.731Z,1008.76
2023-01-10T15:42:08.741Z,1008.72
2023-01-10T15:43:08.740Z,1008.68
2023-01-10T15:44:08.723Z,1008.68
2023-01-10T15:45:08.683Z,1008.66
2023-01-10T15:46:08.772Z,1008.65
2023-01-10T15:47:08.670Z,1008.61
2023-01-10T15:48:08.668Z,1008.60
2023-01-10T15:49:08.978Z,1008.57
2023-01-10T15:50:08.671Z,1008.54
2023-01-10T15:51:08.616Z,1008.53
2023-01-10T15:52:08.649Z,1008.55
2023-01-10T15:53:08.631Z,1008.57
2023-01-10T15:54:08.596Z,1008.56
2023-01-10T15:55:08.588Z,1008.56
2023-01-10T15:56:08.582Z,1008.56
2023-01-10T15:57:08.558Z,1008.53
2023-01-10T15:58:08.559Z,1008.54
2023-01-10T15:59:08.569Z,1008.50
2023-01-10T16:00:08.559Z,1008.49
2023-01-10T16:01:08.608Z,1008.49
2023-01-10T16:02:08.687Z,1008.46
2023-01-10T16:03:08.704Z,1008.48
2023-01-10T16:04:08.502Z,1008.48
2023-01-10T16:05:08.489Z,1008.46
2023-01-10T16:06:08.550Z,1008.46
2023-01-10T16:07:08.454Z,1008.43
2023-01-10T16:08:08.514Z,1008.45
2023-01-10T16:09:08.493Z,1008.40
2023-01-10T16:10:08.482Z,1008.39
2023-01-10T16:11:08.488Z,1008.38
2023-01-10T16:12:08.492Z,1008.40
2023-01-10T16:13:08.439Z,1008.36
2023-01-10T16:14:08.453Z,1008.37
2023-01-10T16:15:08.454Z,1008.39
2023-01-10T16:16:08.482Z,1008.37
2023-01-10T16:17:08.389Z,1008.39
2023-01-10T16:18:08.410Z,1008.31
2023-01-10T16:19:08.505Z,1008.32
2023-01-10T16:20:08.378Z,1008.31
2023-01-10T16:21:08.383Z,1008.29
2023-01-10T16:22:08.379Z,1008.27
2023-01-10T16:23:08.329Z,1008.27
2023-01-10T16:24:10.816Z,1008.28
2023-01-10T16:25:08.310Z,1008.23
2023-01-10T16:26:08.315Z,1008.26
2023-01-10T16:27:08.308Z,1008.24
2023-01-10T16:28:08.289Z,1008.24
2023-01-10T16:29:08.271Z,1008.25
2023-01-10T16:30:08.280Z,1008.24
2023-01-10T16:31:08.289Z,1008.28
2023-01-10T16:32:08.251Z,1008.28
2023-01-10T16:33:08.242Z,1008.29
2023-01-10T16:34:08.247Z,1008.30
2023-01-10T16:35:08.200Z,1008.24
2023-01-10T16:36:08.213Z,1008.23
2023-01-10T16:37:08.181Z,1008.21